Time;durP1;ratioP1;P1;durP2;ratioP2;P2;SDS_P1;SDS_P2;PMS_P1;PMS_P2;Temp;Humidity;BMP_temperature;BMP_pressure;BME280_temperature;BME280_humidity;BME280_pressure;Samples;Min_cycle;Max_cycle;Signal;HPM_P1;HPM_P2
2024/01/31 00:00:10;;;;;;;;;;;5.50;99.90;;;;;;5068435;28;20352;-33
2024/01/31 00:02:37;;;;;;;;;;;5.60;99.90;;;;;;5068570;28;19920;-32
2024/01/31 00:05:04;;;;;;;;;;;5.50;99.90;;;;;;5073858;28;19932;-32
2024/01/31 00:07:32;;;;;;;;;;;5.50;99.90;;;;;;5064887;28;19973;-33
2024/01/31 00:09:58;;;;;;;;;;;5.50;99.90;;;;;;5064823;28;19920;-33
2024/01/31 00:12:27;;;;;;;;;;;5.50;99.90;;;;;;5073992;28;19920;-31
2024/01/31 00:14:54;;;;;;;;;;;5.50;99.90;;;;;;5080011;28;20380;-32
2024/01/31 00:17:20;;;;;;;;;;;5.60;99.90;;;;;;5088350;28;19920;-33
2024/01/31 00:19:47;;;;;;;;;;;5.50;99.90;;;;;;5063824;28;19997;-33
2024/01/31 00:22:14;;;;;;;;;;;5.50;99.90;;;;;;5073248;28;19924;-33
2024/01/31 00:24:42;;;;;;;;;;;5.60;99.90;;;;;;5088884;28;19986;-34
2024/01/31 00:27:09;;;;;;;;;;;5.60;99.90;;;;;;5075955;28;19966;-34
2024/01/31 00:29:36;;;;;;;;;;;5.50;99.90;;;;;;5073849;28;19931;-33
2024/01/31 00:32:02;;;;;;;;;;;5.50;99.90;;;;;;5090168;28;19956;-33
2024/01/31 00:34:31;;;;;;;;;;;5.50;99.90;;;;;;5073274;28;19963;-32
2024/01/31 00:36:58;;;;;;;;;;;5.50;99.90;;;;;;5084008;28;19927;-33
2024/01/31 00:39:28;;;;;;;;;;;5.50;99.90;;;;;;5073998;28;19928;-32
2024/01/31 00:41:56;;;;;;;;;;;5.50;99.90;;;;;;5073019;28;19928;-31
2024/01/31 00:44:22;;;;;;;;;;;5.50;99.90;;;;;;5074422;28;19920;-33
2024/01/31 00:46:49;;;;;;;;;;;5.50;99.90;;;;;;5076304;28;20310;-31
2024/01/31 00:49:16;;;;;;;;;;;5.50;99.90;;;;;;5094776;28;19977;-32
2024/01/31 00:51:43;;;;;;;;;;;5.50;99.90;;;;;;5076855;28;19969;-32
2024/01/31 00:54:09;;;;;;;;;;;5.50;99.90;;;;;;5076607;28;19974;-32
2024/01/31 00:56:36;;;;;;;;;;;5.50;99.90;;;;;;5077583;28;19927;-31
2024/01/31 00:59:04;;;;;;;;;;;5.50;99.90;;;;;;5091710;28;20422;-33
2024/01/31 01:01:30;;;;;;;;;;;5.50;99.90;;;;;;5093161;28;20309;-32
2024/01/31 01:03:57;;;;;;;;;;;5.50;99.90;;;;;;5075530;28;19985;-34
2024/01/31 01:06:24;;;;;;;;;;;5.50;99.90;;;;;;5069748;28;19932;-32
2024/01/31 01:08:50;;;;;;;;;;;5.50;99.90;;;;;;5061035;28;20004;-31
2024/01/31 01:11:17;;;;;;;;;;;5.50;99.90;;;;;;5068778;28;19920;-32
2024/01/31 01:13:44;;;;;;;;;;;5.50;99.90;;;;;;5090258;28;19924;-32
2024/01/31 01:16:12;;;;;;;;;;;5.50;99.90;;;;;;5067456;28;19970;-31
2024/01/31 01:18:39;;;;;;;;;;;5.50;99.90;;;;;;5094844;28;20329;-31
2024/01/31 01:21:05;;;;;;;;;;;5.50;99.90;;;;;;5075762;28;19973;-31
2024/01/31 01:23:32;;;;;;;;;;;5.50;99.90;;;;;;5077330;28;19920;-32
2024/01/31 01:25:58;;;;;;;;;;;5.50;99.90;;;;;;5076040;28;19920;-33
2024/01/31 01:28:25;;;;;;;;;;;5.50;99.90;;;;;;5090595;28;19932;-32
2024/01/31 01:30:52;;;;;;;;;;;5.40;99.90;;;;;;5086363;28;20356;-33
2024/01/31 01:33:20;;;;;;;;;;;5.50;99.90;;;;;;5075621;28;19924;-33
2024/01/31 01:35:46;;;;;;;;;;;5.50;99.90;;;;;;5083572;28;19920;-32
2024/01/31 01:38:13;;;;;;;;;;;5.50;99.90;;;;;;5060720;28;19924;-31
2024/01/31 01:40:43;;;;;;;;;;;5.50;99.90;;;;;;5086430;28;20306;-32
2024/01/31 01:43:14;;;;;;;;;;;5.50;99.90;;;;;;5075636;28;19973;-32
2024/01/31 01:45:40;;;;;;;;;;;5.40;99.90;;;;;;5075729;28;19920;-32
2024/01/31 01:48:07;;;;;;;;;;;5.40;99.90;;;;;;5094523;28;19920;-32
2024/01/31 01:50:35;;;;;;;;;;;5.40;99.90;;;;;;5093643;28;20350;-32
2024/01/31 01:53:02;;;;;;;;;;;5.40;99.90;;;;;;5071310;28;19927;-32
2024/01/31 01:55:29;;;;;;;;;;;5.50;99.90;;;;;;5089208;28;19920;-34
2024/01/31 01:57:55;;;;;;;;;;;5.50;99.90;;;;;;5071204;28;19966;-31
2024/01/31 02:00:24;;;;;;;;;;;5.40;99.90;;;;;;5098538;28;20366;-32
2024/01/31 02:02:51;;;;;;;;;;;5.40;99.90;;;;;;5095957;28;19920;-31
2024/01/31 02:05:17;;;;;;;;;;;5.40;99.90;;;;;;5096045;28;19919;-31
2024/01/31 02:07:46;;;;;;;;;;;5.40;99.90;;;;;;5096553;28;19927;-32
2024/01/31 02:10:12;;;;;;;;;;;5.40;99.90;;;;;;5094360;28;20309;-33
2024/01/31 02:12:39;;;;;;;;;;;5.40;99.90;;;;;;5082357;28;19920;-31
2024/01/31 02:15:06;;;;;;;;;;;5.40;99.90;;;;;;5100819;28;19920;-32
2024/01/31 02:17:33;;;;;;;;;;;5.40;99.90;;;;;;5094878;28;19962;-32
2024/01/31 02:19:59;;;;;;;;;;;5.40;99.90;;;;;;5081561;28;19969;-32
2024/01/31 02:22:27;;;;;;;;;;;5.40;99.90;;;;;;5094011;28;20317;-32
2024/01/31 02:24:54;;;;;;;;;;;5.40;99.90;;;;;;5112157;28;20391;-31
2024/01/31 02:27:21;;;;;;;;;;;5.40;99.90;;;;;;5112604;28;19924;-34
2024/01/31 02:29:47;;;;;;;;;;;5.40;99.90;;;;;;5094981;28;19924;-32
2024/01/31 02:32:14;;;;;;;;;;;5.40;99.90;;;;;;5104745;28;19924;-33
2024/01/31 02:34:41;;;;;;;;;;;5.40;99.90;;;;;;5093762;28;19919;-32
2024/01/31 02:37:07;;;;;;;;;;;5.30;99.90;;;;;;5113073;28;20020;-33
2024/01/31 02:39:35;;;;;;;;;;;5.30;99.90;;;;;;5113043;28;19973;-32
2024/01/31 02:42:02;;;;;;;;;;;5.30;99.90;;;;;;5112751;28;19988;-31
2024/01/31 02:44:29;;;;;;;;;;;5.40;99.90;;;;;;5113846;28;19920;-33
2024/01/31 02:46:56;;;;;;;;;;;5.30;99.90;;;;;;5095805;28;19945;-33
2024/01/31 02:49:22;;;;;;;;;;;5.30;99.90;;;;;;5111794;28;20291;-32
2024/01/31 02:51:49;;;;;;;;;;;5.30;99.90;;;;;;5111350;28;19942;-32
2024/01/31 02:54:16;;;;;;;;;;;5.30;99.90;;;;;;5112945;28;20355;-31
2024/01/31 02:56:44;;;;;;;;;;;5.30;99.90;;;;;;5087472;28;19921;-33
2024/01/31 02:59:10;;;;;;;;;;;5.30;99.90;;;;;;5094253;28;19961;-31
2024/01/31 03:01:43;;;;;;;;;;;5.40;99.90;;;;;;5112748;28;19980;-32
2024/01/31 03:04:10;;;;;;;;;;;5.30;99.90;;;;;;5093541;28;19920;-32
2024/01/31 03:06:36;;;;;;;;;;;5.30;99.90;;;;;;5092068;28;19925;-31
2024/01/31 03:09:03;;;;;;;;;;;5.30;99.90;;;;;;5108430;28;19949;-31
2024/01/31 03:11:30;;;;;;;;;;;5.30;99.90;;;;;;5105118;28;19965;-31
2024/01/31 03:13:58;;;;;;;;;;;5.30;99.90;;;;;;5091561;28;20352;-32
2024/01/31 03:16:24;;;;;;;;;;;5.30;99.90;;;;;;5112335;28;19927;-33
2024/01/31 03:18:53;;;;;;;;;;;5.30;99.90;;;;;;5090865;28;19920;-32
2024/01/31 03:21:20;;;;;;;;;;;5.20;99.90;;;;;;5095161;28;20267;-32
2024/01/31 03:23:47;;;;;;;;;;;5.20;99.90;;;;;;5112078;28;19965;-32
2024/01/31 03:26:13;;;;;;;;;;;5.20;99.90;;;;;;5094546;28;19964;-32
2024/01/31 03:28:40;;;;;;;;;;;5.30;99.90;;;;;;5094131;28;19924;-33
2024/01/31 03:31:08;;;;;;;;;;;5.20;99.90;;;;;;5092146;28;20291;-33
2024/01/31 03:33:34;;;;;;;;;;;5.20;99.90;;;;;;5093982;28;19931;-33
2024/01/31 03:36:01;;;;;;;;;;;5.20;99.90;;;;;;5093160;28;19924;-32
2024/01/31 03:38:28;;;;;;;;;;;5.30;99.90;;;;;;5093873;28;20363;-32
2024/01/31 03:40:54;;;;;;;;;;;5.20;99.90;;;;;;5111582;28;19927;-32
2024/01/31 03:43:21;;;;;;;;;;;5.20;99.90;;;;;;5093532;28;19977;-34
2024/01/31 03:45:48;;;;;;;;;;;5.20;99.90;;;;;;5094977;28;19920;-32
2024/01/31 03:48:16;;;;;;;;;;;5.20;99.90;;;;;;5080772;28;19920;-33
2024/01/31 03:50:42;;;;;;;;;;;5.20;99.90;;;;;;5091447;28;19969;-32
2024/01/31 03:53:09;;;;;;;;;;;5.20;99.90;;;;;;5099841;28;19978;-33
2024/01/31 03:55:35;;;;;;;;;;;5.20;99.90;;;;;;5092967;28;20355;-33
2024/01/31 03:58:03;;;;;;;;;;;5.20;99.90;;;;;;5087807;28;19947;-32
2024/01/31 04:00:30;;;;;;;;;;;5.20;99.90;;;;;;5092824;28;20382;-33
2024/01/31 04:02:56;;;;;;;;;;;5.20;99.90;;;;;;5093431;28;19926;-32
2024/01/31 04:05:24;;;;;;;;;;;5.20;99.90;;;;;;5084563;28;20257;-32
2024/01/31 04:07:51;;;;;;;;;;;5.20;99.90;;;;;;5093553;28;19973;-33
2024/01/31 04:10:18;;;;;;;;;;;5.20;99.90;;;;;;5085297;28;19969;-33
2024/01/31 04:12:45;;;;;;;;;;;5.20;99.90;;;;;;5080757;28;19977;-33
2024/01/31 04:15:12;;;;;;;;;;;5.20;99.90;;;;;;5109515;28;20430;-33
2024/01/31 04:17:38;;;;;;;;;;;5.10;99.90;;;;;;5112247;28;20400;-33
2024/01/31 04:20:06;;;;;;;;;;;5.10;99.90;;;;;;5078191;28;20057;-32
2024/01/31 04:22:34;;;;;;;;;;;5.10;99.90;;;;;;5086900;28;19927;-34
2024/01/31 04:25:00;;;;;;;;;;;5.10;99.90;;;;;;5084796;28;19920;-32
2024/01/31 04:27:27;;;;;;;;;;;5.10;99.90;;;;;;5088658;28;20418;-35
2024/01/31 04:29:53;;;;;;;;;;;5.10;99.90;;;;;;5097557;28;19984;-32
2024/01/31 04:32:20;;;;;;;;;;;5.10;99.90;;;;;;5097302;28;19923;-34
2024/01/31 04:34:47;;;;;;;;;;;5.10;99.90;;;;;;5115728;28;19919;-33
2024/01/31 04:37:13;;;;;;;;;;;5.00;99.90;;;;;;5097773;28;19980;-32
2024/01/31 04:39:42;;;;;;;;;;;5.00;99.90;;;;;;5096139;28;20409;-33
2024/01/31 04:42:09;;;;;;;;;;;5.00;99.90;;;;;;5098188;28;20363;-33
2024/01/31 04:44:36;;;;;;;;;;;4.90;99.90;;;;;;5088876;28;19970;-34
2024/01/31 04:47:02;;;;;;;;;;;4.90;99.90;;;;;;5087691;28;19920;-33
2024/01/31 04:49:29;;;;;;;;;;;4.90;99.90;;;;;;5078300;28;19965;-32
2024/01/31 04:51:56;;;;;;;;;;;4.90;99.90;;;;;;5080602;28;19924;-34
2024/01/31 04:54:23;;;;;;;;;;;4.80;99.90;;;;;;5097889;28;19919;-33
2024/01/31 04:56:51;;;;;;;;;;;4.80;99.90;;;;;;5090930;28;20351;-32
2024/01/31 04:59:17;;;;;;;;;;;4.70;99.90;;;;;;5114079;28;19920;-32
2024/01/31 05:01:44;;;;;;;;;;;4.70;99.90;;;;;;5095964;28;20448;-31
2024/01/31 05:04:11;;;;;;;;;;;4.60;99.90;;;;;;5086493;28;20534;-32
2024/01/31 05:06:37;;;;;;;;;;;4.60;99.90;;;;;;5111915;28;19924;-32
2024/01/31 05:09:04;;;;;;;;;;;4.50;99.90;;;;;;5094534;28;19932;-32
2024/01/31 05:11:31;;;;;;;;;;;4.50;99.90;;;;;;5093675;28;19969;-33
2024/01/31 05:13:58;;;;;;;;;;;4.50;99.90;;;;;;5111590;28;19919;-32
2024/01/31 05:16:25;;;;;;;;;;;4.50;99.90;;;;;;5096071;28;19972;-33
2024/01/31 05:18:52;;;;;;;;;;;4.40;99.90;;;;;;5109834;28;20283;-32
2024/01/31 05:21:18;;;;;;;;;;;4.40;99.90;;;;;;5096192;28;19920;-32
2024/01/31 05:23:45;;;;;;;;;;;4.40;99.90;;;;;;5092373;28;19971;-33
2024/01/31 05:26:12;;;;;;;;;;;4.40;99.90;;;;;;5096294;28;19924;-32
2024/01/31 05:28:38;;;;;;;;;;;4.40;99.90;;;;;;5093983;28;19927;-32
2024/01/31 05:31:07;;;;;;;;;;;4.40;99.90;;;;;;5092067;28;19923;-32
2024/01/31 05:33:33;;;;;;;;;;;4.40;99.90;;;;;;5093805;28;19920;-32
2024/01/31 05:36:01;;;;;;;;;;;4.40;99.90;;;;;;5089858;28;20200;-32
2024/01/31 05:38:27;;;;;;;;;;;4.40;99.90;;;;;;5112803;28;19919;-32
2024/01/31 05:40:54;;;;;;;;;;;4.40;99.90;;;;;;5095665;28;19928;-32
2024/01/31 05:43:21;;;;;;;;;;;4.40;99.90;;;;;;5082239;28;19977;-33
2024/01/31 05:45:47;;;;;;;;;;;4.50;99.90;;;;;;5096446;28;19920;-31
2024/01/31 05:48:16;;;;;;;;;;;4.40;99.90;;;;;;5095507;28;19919;-31
2024/01/31 05:50:42;;;;;;;;;;;4.50;99.90;;;;;;5093888;28;20004;-31
2024/01/31 05:53:09;;;;;;;;;;;4.50;99.90;;;;;;5091859;28;19963;-31
2024/01/31 05:55:36;;;;;;;;;;;4.50;99.90;;;;;;5096209;28;20264;-32
2024/01/31 05:58:02;;;;;;;;;;;4.60;99.90;;;;;;5090981;28;19972;-31
2024/01/31 06:00:29;;;;;;;;;;;4.60;99.90;;;;;;5094489;28;19923;-33
2024/01/31 06:02:56;;;;;;;;;;;4.60;99.90;;;;;;5108061;28;19985;-32
2024/01/31 06:05:24;;;;;;;;;;;4.60;99.90;;;;;;5091002;28;19963;-32
2024/01/31 06:07:51;;;;;;;;;;;4.60;99.90;;;;;;5085105;28;20318;-32
2024/01/31 06:10:17;;;;;;;;;;;4.60;99.90;;;;;;5079346;28;19975;-31
2024/01/31 06:12:44;;;;;;;;;;;4.60;99.90;;;;;;5112976;28;19949;-32
2024/01/31 06:15:11;;;;;;;;;;;4.60;99.90;;;;;;5111117;28;19930;-31
2024/01/31 06:17:38;;;;;;;;;;;4.60;99.90;;;;;;5088389;28;19965;-32
2024/01/31 06:20:05;;;;;;;;;;;4.70;99.90;;;;;;5093677;28;19920;-31
2024/01/31 06:22:33;;;;;;;;;;;4.60;99.90;;;;;;5100937;28;19920;-33
2024/01/31 06:25:00;;;;;;;;;;;4.70;99.90;;;;;;5111016;28;19920;-31
2024/01/31 06:27:26;;;;;;;;;;;4.70;99.90;;;;;;5105491;28;19919;-33
2024/01/31 06:29:53;;;;;;;;;;;4.70;99.90;;;;;;5084073;28;19973;-31
2024/01/31 06:32:22;;;;;;;;;;;4.70;99.90;;;;;;5091486;28;19924;-32
2024/01/31 06:34:49;;;;;;;;;;;4.70;99.90;;;;;;5094997;28;20378;-32
2024/01/31 06:37:16;;;;;;;;;;;4.70;99.90;;;;;;5099026;28;19993;-32
2024/01/31 06:39:44;;;;;;;;;;;4.70;99.90;;;;;;5103482;28;19926;-33
2024/01/31 06:42:10;;;;;;;;;;;4.70;99.90;;;;;;5090855;28;20405;-33
2024/01/31 06:44:37;;;;;;;;;;;4.70;99.90;;;;;;5103602;28;19920;-32
2024/01/31 06:47:05;;;;;;;;;;;4.70;99.90;;;;;;5093313;28;19920;-32
2024/01/31 06:49:31;;;;;;;;;;;4.70;99.90;;;;;;5095146;28;20058;-32
2024/01/31 06:51:58;;;;;;;;;;;4.70;99.90;;;;;;5094722;28;19924;-34
2024/01/31 06:54:24;;;;;;;;;;;4.80;99.90;;;;;;5110261;28;19920;-33
2024/01/31 06:56:52;;;;;;;;;;;4.70;99.90;;;;;;5110188;28;20321;-34
2024/01/31 06:59:19;;;;;;;;;;;4.80;99.90;;;;;;5093996;28;20380;-32
2024/01/31 07:01:46;;;;;;;;;;;4.80;99.90;;;;;;5083117;28;20079;-32
2024/01/31 07:04:12;;;;;;;;;;;4.80;99.90;;;;;;5112449;28;20049;-31
2024/01/31 07:06:39;;;;;;;;;;;4.80;99.90;;;;;;5095857;28;20313;-30
2024/01/31 07:09:06;;;;;;;;;;;4.80;99.90;;;;;;5088972;28;19930;-31
2024/01/31 07:11:32;;;;;;;;;;;4.80;99.90;;;;;;5090619;28;19992;-31
2024/01/31 07:14:00;;;;;;;;;;;4.80;99.90;;;;;;5090708;28;20397;-31
2024/01/31 07:16:27;;;;;;;;;;;4.80;99.90;;;;;;5089213;28;19920;-32
2024/01/31 07:18:54;;;;;;;;;;;4.90;99.90;;;;;;5081115;28;19920;-30
2024/01/31 07:21:24;;;;;;;;;;;4.90;99.90;;;;;;5093589;28;19980;-32
2024/01/31 07:23:51;;;;;;;;;;;4.80;99.90;;;;;;5101412;28;19920;-30
2024/01/31 07:26:20;;;;;;;;;;;4.90;99.90;;;;;;5094733;28;19964;-30
2024/01/31 07:28:47;;;;;;;;;;;4.80;99.90;;;;;;5086455;28;20432;-31
2024/01/31 07:31:15;;;;;;;;;;;4.80;99.90;;;;;;5089068;28;19950;-31
2024/01/31 07:33:42;;;;;;;;;;;4.80;99.90;;;;;;5082891;28;19940;-31
2024/01/31 07:36:08;;;;;;;;;;;4.80;99.90;;;;;;5076494;28;19924;-32
2024/01/31 07:38:35;;;;;;;;;;;4.90;99.90;;;;;;5077219;28;19972;-31
2024/01/31 07:41:02;;;;;;;;;;;4.80;99.90;;;;;;5090074;28;19952;-31
2024/01/31 07:43:28;;;;;;;;;;;4.80;99.90;;;;;;5101881;28;19965;-32
2024/01/31 07:45:55;;;;;;;;;;;4.80;99.90;;;;;;5089253;28;19920;-30
2024/01/31 07:48:23;;;;;;;;;;;4.80;99.90;;;;;;5076002;28;20256;-31
2024/01/31 07:50:50;;;;;;;;;;;4.80;99.90;;;;;;5090936;28;19919;-32
2024/01/31 07:53:17;;;;;;;;;;;4.80;99.90;;;;;;5087527;28;19928;-31
2024/01/31 07:55:43;;;;;;;;;;;4.80;99.90;;;;;;5095998;28;19924;-33
2024/01/31 07:58:10;;;;;;;;;;;4.80;99.90;;;;;;5095781;28;20299;-33
2024/01/31 08:00:37;;;;;;;;;;;4.90;99.90;;;;;;5108469;28;20026;-32
2024/01/31 08:03:04;;;;;;;;;;;4.80;99.90;;;;;;5090631;28;19959;-32
2024/01/31 08:05:31;;;;;;;;;;;4.90;99.90;;;;;;5093227;28;20249;-33
2024/01/31 08:07:58;;;;;;;;;;;4.90;99.90;;;;;;5094885;28;19980;-33
2024/01/31 08:10:25;;;;;;;;;;;4.90;99.90;;;;;;5093670;28;19919;-32
2024/01/31 08:12:52;;;;;;;;;;;4.90;99.90;;;;;;5088985;28;19920;-33
2024/01/31 08:15:18;;;;;;;;;;;4.90;99.90;;;;;;5112892;28;20010;-32
2024/01/31 08:17:46;;;;;;;;;;;4.90;99.90;;;;;;5117050;28;19920;-32
2024/01/31 08:20:13;;;;;;;;;;;4.90;99.90;;;;;;5085572;28;19936;-33
2024/01/31 08:22:41;;;;;;;;;;;4.90;99.90;;;;;;5107136;27;19924;-32
2024/01/31 08:25:08;;;;;;;;;;;5.00;99.90;;;;;;5093761;28;19927;-31
2024/01/31 08:27:35;;;;;;;;;;;5.00;99.90;;;;;;5103778;28;19974;-31
2024/01/31 08:30:03;;;;;;;;;;;5.00;99.90;;;;;;5092579;28;19992;-31
2024/01/31 08:32:30;;;;;;;;;;;5.00;99.90;;;;;;5093390;28;19932;-32
2024/01/31 08:34:57;;;;;;;;;;;5.10;99.90;;;;;;5086610;28;19924;-31
2024/01/31 08:37:23;;;;;;;;;;;5.10;99.90;;;;;;5090718;28;19924;-32
2024/01/31 08:39:52;;;;;;;;;;;5.10;99.90;;;;;;5099762;28;19920;-32
2024/01/31 08:42:18;;;;;;;;;;;5.10;99.90;;;;;;5118802;28;19920;-32
2024/01/31 08:44:45;;;;;;;;;;;5.10;99.90;;;;;;5096194;28;19943;-32
2024/01/31 08:47:12;;;;;;;;;;;5.10;99.90;;;;;;5100157;28;19973;-31
2024/01/31 08:49:38;;;;;;;;;;;5.10;99.90;;;;;;5100649;28;19965;-31
2024/01/31 08:52:06;;;;;;;;;;;5.10;99.90;;;;;;5118893;28;19923;-31
2024/01/31 08:54:32;;;;;;;;;;;5.20;99.90;;;;;;5116051;28;19924;-31
2024/01/31 08:57:00;;;;;;;;;;;5.20;99.90;;;;;;5094113;28;19972;-31
2024/01/31 08:59:27;;;;;;;;;;;5.20;99.90;;;;;;5119225;28;19920;-31
2024/01/31 09:01:54;;;;;;;;;;;5.20;99.90;;;;;;5101356;28;19927;-32
2024/01/31 09:04:20;;;;;;;;;;;5.30;99.90;;;;;;5119150;28;19920;-32
2024/01/31 09:06:47;;;;;;;;;;;5.30;99.90;;;;;;5117576;28;19923;-32
2024/01/31 09:09:14;;;;;;;;;;;5.30;99.90;;;;;;5116084;28;19919;-31
2024/01/31 09:11:40;;;;;;;;;;;5.30;99.90;;;;;;5115770;28;19919;-31
2024/01/31 09:14:08;;;;;;;;;;;5.40;99.90;;;;;;5097996;28;19996;-33
2024/01/31 09:16:35;;;;;;;;;;;5.40;99.90;;;;;;5083243;28;20355;-31
2024/01/31 09:19:03;;;;;;;;;;;5.40;99.90;;;;;;5097384;28;19920;-31
2024/01/31 09:21:30;;;;;;;;;;;5.40;99.90;;;;;;5097775;28;19950;-31
2024/01/31 09:23:57;;;;;;;;;;;5.50;99.90;;;;;;5115691;28;19988;-32
2024/01/31 09:26:24;;;;;;;;;;;5.60;99.90;;;;;;5097828;28;19923;-33
2024/01/31 09:28:51;;;;;;;;;;;5.50;99.90;;;;;;5097170;28;20371;-31
2024/01/31 09:31:22;;;;;;;;;;;5.60;99.90;;;;;;5097402;28;19924;-31
2024/01/31 09:33:49;;;;;;;;;;;5.60;99.90;;;;;;5097373;28;19980;-33
2024/01/31 09:36:15;;;;;;;;;;;5.60;99.90;;;;;;5094774;28;20356;-31
2024/01/31 09:38:43;;;;;;;;;;;5.60;99.90;;;;;;5108103;28;19973;-32
2024/01/31 09:41:10;;;;;;;;;;;5.70;99.90;;;;;;5097284;28;19920;-32
2024/01/31 09:43:36;;;;;;;;;;;5.70;99.90;;;;;;5097211;28;19976;-33
2024/01/31 09:46:03;;;;;;;;;;;5.70;99.90;;;;;;5096908;28;20008;-32
2024/01/31 09:48:31;;;;;;;;;;;5.70;99.90;;;;;;5097143;28;20351;-32
2024/01/31 09:50:58;;;;;;;;;;;5.70;99.90;;;;;;5097266;28;20539;-33
2024/01/31 09:53:25;;;;;;;;;;;5.80;99.90;;;;;;5096960;28;20008;-32
2024/01/31 09:55:54;;;;;;;;;;;5.70;99.90;;;;;;5115045;28;20421;-31
2024/01/31 09:58:21;;;;;;;;;;;5.80;99.90;;;;;;5095453;28;19920;-32
2024/01/31 10:00:49;;;;;;;;;;;5.80;99.90;;;;;;5114369;28;19923;-32
2024/01/31 10:03:15;;;;;;;;;;;5.80;99.90;;;;;;5096717;28;19951;-32
2024/01/31 10:05:43;;;;;;;;;;;5.90;99.90;;;;;;5096984;28;19928;-33
2024/01/31 10:08:10;;;;;;;;;;;5.90;99.90;;;;;;5096808;28;19953;-34
2024/01/31 10:10:37;;;;;;;;;;;5.90;99.90;;;;;;5093716;28;19965;-33
2024/01/31 10:13:04;;;;;;;;;;;6.00;99.90;;;;;;5086737;28;19980;-31
2024/01/31 10:15:31;;;;;;;;;;;6.00;99.90;;;;;;5096363;28;20418;-30
2024/01/31 10:17:58;;;;;;;;;;;6.00;99.90;;;;;;5095776;28;19931;-30
2024/01/31 10:20:25;;;;;;;;;;;6.00;99.90;;;;;;5096682;28;20329;-32
2024/01/31 10:22:53;;;;;;;;;;;6.00;99.90;;;;;;5096765;28;19920;-33
2024/01/31 10:25:20;;;;;;;;;;;6.10;99.90;;;;;;5114657;28;19919;-30
2024/01/31 10:27:46;;;;;;;;;;;6.10;99.90;;;;;;5096063;28;20363;-31
2024/01/31 10:30:14;;;;;;;;;;;6.10;99.90;;;;;;5114233;28;19920;-31
2024/01/31 10:32:41;;;;;;;;;;;6.10;99.90;;;;;;5112257;28;19932;-32
2024/01/31 10:35:08;;;;;;;;;;;6.10;99.90;;;;;;5096477;28;20321;-31
2024/01/31 10:37:34;;;;;;;;;;;6.10;99.90;;;;;;5096406;28;19964;-31
2024/01/31 10:40:04;;;;;;;;;;;6.10;99.90;;;;;;5096280;28;19920;-32
2024/01/31 10:42:31;;;;;;;;;;;6.20;99.90;;;;;;5114267;28;20299;-31
2024/01/31 10:44:57;;;;;;;;;;;6.20;99.90;;;;;;5096263;28;19920;-32
2024/01/31 10:47:24;;;;;;;;;;;6.20;99.90;;;;;;5096172;28;19945;-32
2024/01/31 10:49:51;;;;;;;;;;;6.20;99.90;;;;;;5096222;28;20016;-32
2024/01/31 10:52:17;;;;;;;;;;;6.30;99.90;;;;;;5113826;28;19973;-32
2024/01/31 10:54:45;;;;;;;;;;;6.30;99.90;;;;;;5079688;28;19980;-32
2024/01/31 10:57:13;;;;;;;;;;;6.30;99.90;;;;;;5113941;28;19920;-32
2024/01/31 10:59:40;;;;;;;;;;;6.30;99.90;;;;;;5113995;28;20327;-32
2024/01/31 11:02:12;;;;;;;;;;;6.30;99.90;;;;;;5113597;28;19927;-31
2024/01/31 11:04:39;;;;;;;;;;;6.40;99.90;;;;;;5095546;28;20424;-34
2024/01/31 11:07:06;;;;;;;;;;;6.40;99.90;;;;;;5095506;28;20371;-31
2024/01/31 11:09:33;;;;;;;;;;;6.50;99.90;;;;;;5095722;28;19954;-33
2024/01/31 11:12:03;;;;;;;;;;;6.40;99.90;;;;;;5113525;28;19977;-32
2024/01/31 11:14:31;;;;;;;;;;;6.40;99.90;;;;;;5083771;28;19959;-32
2024/01/31 11:17:05;;;;;;;;;;;6.50;99.90;;;;;;5095587;28;20329;-32
2024/01/31 11:19:31;;;;;;;;;;;6.50;99.90;;;;;;5113478;28;19949;-32
2024/01/31 11:22:00;;;;;;;;;;;6.50;99.90;;;;;;5112728;28;19988;-32
2024/01/31 11:24:27;;;;;;;;;;;6.50;99.90;;;;;;5113176;28;20321;-31
2024/01/31 11:26:53;;;;;;;;;;;6.50;99.90;;;;;;5095254;28;19920;-35
2024/01/31 11:29:21;;;;;;;;;;;6.50;99.90;;;;;;5094797;28;19972;-31
2024/01/31 11:31:50;;;;;;;;;;;6.50;99.90;;;;;;5094961;28;20408;-32
2024/01/31 11:34:18;;;;;;;;;;;6.50;99.90;;;;;;5094417;28;21466;-31
2024/01/31 11:36:45;;;;;;;;;;;6.50;99.90;;;;;;5094149;28;19988;-32
2024/01/31 11:39:12;;;;;;;;;;;6.50;99.90;;;;;;5095204;28;19920;-31
2024/01/31 11:41:38;;;;;;;;;;;6.50;99.90;;;;;;5113091;28;19923;-32
2024/01/31 11:44:05;;;;;;;;;;;6.50;99.90;;;;;;5094666;28;20410;-31
2024/01/31 11:46:32;;;;;;;;;;;6.50;99.90;;;;;;5095354;28;20388;-31
2024/01/31 11:49:00;;;;;;;;;;;6.50;99.90;;;;;;5095474;28;19967;-32
2024/01/31 11:51:26;;;;;;;;;;;6.50;99.90;;;;;;5095075;28;20000;-32
2024/01/31 11:53:54;;;;;;;;;;;6.50;99.90;;;;;;5113034;28;19969;-31
2024/01/31 11:56:20;;;;;;;;;;;6.50;99.90;;;;;;5085960;28;19920;-32
2024/01/31 11:58:47;;;;;;;;;;;6.60;99.90;;;;;;5112766;28;19972;-31
2024/01/31 12:01:14;;;;;;;;;;;6.60;99.90;;;;;;5090927;28;19920;-32
2024/01/31 12:03:41;;;;;;;;;;;6.60;99.90;;;;;;5075127;28;19919;-32
2024/01/31 12:06:08;;;;;;;;;;;6.60;99.90;;;;;;5091703;28;19920;-32
2024/01/31 12:08:35;;;;;;;;;;;6.70;99.90;;;;;;5091516;28;19966;-32
2024/01/31 12:11:02;;;;;;;;;;;6.70;99.90;;;;;;5092743;28;19920;-30
2024/01/31 12:13:29;;;;;;;;;;;6.80;99.90;;;;;;5091052;28;19931;-31
2024/01/31 12:15:56;;;;;;;;;;;6.80;99.90;;;;;;5104480;28;19924;-33
2024/01/31 12:18:22;;;;;;;;;;;6.90;99.90;;;;;;5095004;28;19946;-32
2024/01/31 12:20:49;;;;;;;;;;;6.80;99.90;;;;;;5113009;28;20336;-31
2024/01/31 12:23:17;;;;;;;;;;;6.90;99.90;;;;;;5113004;28;19928;-31
2024/01/31 12:25:43;;;;;;;;;;;6.90;99.90;;;;;;5112997;28;19965;-31
2024/01/31 12:28:10;;;;;;;;;;;6.90;99.90;;;;;;5094635;28;20321;-32
2024/01/31 12:30:37;;;;;;;;;;;6.90;99.90;;;;;;5094498;28;19973;-32
2024/01/31 12:33:04;;;;;;;;;;;6.90;99.90;;;;;;5112808;28;19990;-32
2024/01/31 12:35:31;;;;;;;;;;;6.90;99.90;;;;;;5092967;28;19920;-33
2024/01/31 12:37:57;;;;;;;;;;;6.90;99.90;;;;;;5112639;28;19928;-32
2024/01/31 12:40:25;;;;;;;;;;;6.90;99.90;;;;;;5094176;28;19924;-32
2024/01/31 12:42:52;;;;;;;;;;;6.90;99.90;;;;;;5097858;28;19923;-31
2024/01/31 12:45:19;;;;;;;;;;;6.90;99.90;;;;;;5098465;28;19972;-32
2024/01/31 12:47:45;;;;;;;;;;;6.90;99.90;;;;;;5098502;28;19927;-32
2024/01/31 12:50:12;;;;;;;;;;;6.90;99.90;;;;;;5098345;28;19920;-32
2024/01/31 12:52:38;;;;;;;;;;;7.00;99.90;;;;;;5098191;28;19920;-32
2024/01/31 12:55:06;;;;;;;;;;;7.00;99.90;;;;;;5097788;28;19919;-31
2024/01/31 12:57:34;;;;;;;;;;;7.00;99.90;;;;;;5077880;28;20276;-32
2024/01/31 13:00:00;;;;;;;;;;;6.90;99.90;;;;;;5077769;28;20384;-31
2024/01/31 13:02:27;;;;;;;;;;;7.00;99.90;;;;;;5089667;28;19919;-32
2024/01/31 13:04:54;;;;;;;;;;;7.00;99.90;;;;;;5111155;28;21189;-31
2024/01/31 13:07:21;;;;;;;;;;;7.00;99.90;;;;;;5113109;28;20002;-33
2024/01/31 13:09:48;;;;;;;;;;;7.00;99.90;;;;;;5094628;28;19923;-33
2024/01/31 13:12:15;;;;;;;;;;;7.00;99.90;;;;;;5094755;28;19919;-32
2024/01/31 13:14:43;;;;;;;;;;;7.00;99.90;;;;;;5094556;28;20394;-32
2024/01/31 13:17:10;;;;;;;;;;;7.00;99.90;;;;;;5096574;28;20351;-32
2024/01/31 13:19:36;;;;;;;;;;;7.00;99.90;;;;;;5095336;28;19924;-33
2024/01/31 13:22:03;;;;;;;;;;;7.00;99.90;;;;;;5097196;28;19920;-32
2024/01/31 13:24:31;;;;;;;;;;;7.00;99.90;;;;;;5094487;28;19923;-33
2024/01/31 13:26:57;;;;;;;;;;;7.00;99.90;;;;;;5088557;28;19920;-32
2024/01/31 13:29:25;;;;;;;;;;;7.10;99.90;;;;;;5087776;28;19967;-32
2024/01/31 13:31:53;;;;;;;;;;;7.00;99.90;;;;;;5096831;28;19919;-34
2024/01/31 13:34:19;;;;;;;;;;;7.10;99.90;;;;;;5113327;28;19931;-32
2024/01/31 13:36:46;;;;;;;;;;;7.00;99.90;;;;;;5114738;28;19965;-32
2024/01/31 13:39:14;;;;;;;;;;;7.00;99.90;;;;;;5106207;28;19971;-33
2024/01/31 13:41:41;;;;;;;;;;;7.00;99.90;;;;;;5079310;28;20249;-31
2024/01/31 13:44:08;;;;;;;;;;;7.00;99.90;;;;;;5096068;28;19919;-31
2024/01/31 13:46:34;;;;;;;;;;;7.00;99.90;;;;;;5106721;28;20318;-31
2024/01/31 13:49:03;;;;;;;;;;;7.00;99.90;;;;;;5090353;28;19973;-32
2024/01/31 13:51:29;;;;;;;;;;;7.00;99.90;;;;;;5090989;28;19923;-32
2024/01/31 13:53:56;;;;;;;;;;;7.00;99.90;;;;;;5087459;28;20001;-31
2024/01/31 13:56:23;;;;;;;;;;;7.00;99.90;;;;;;5087853;28;19965;-33
2024/01/31 13:58:49;;;;;;;;;;;7.00;99.90;;;;;;5095149;28;19919;-31
2024/01/31 14:01:16;;;;;;;;;;;7.00;99.90;;;;;;5089551;28;19976;-30
2024/01/31 14:03:42;;;;;;;;;;;7.00;99.90;;;;;;5104047;28;19992;-32
2024/01/31 14:06:10;;;;;;;;;;;7.00;99.90;;;;;;5100842;28;19977;-31
2024/01/31 14:08:37;;;;;;;;;;;6.90;99.90;;;;;;5090323;28;19920;-31
2024/01/31 14:11:04;;;;;;;;;;;7.00;99.90;;;;;;5112916;28;19919;-31
2024/01/31 14:13:31;;;;;;;;;;;6.90;99.90;;;;;;5093459;28;19973;-32
2024/01/31 14:15:58;;;;;;;;;;;6.90;99.90;;;;;;5114098;28;19927;-32
2024/01/31 14:18:24;;;;;;;;;;;6.90;99.90;;;;;;5095295;28;19926;-34
2024/01/31 14:20:51;;;;;;;;;;;6.90;99.90;;;;;;5095008;28;19973;-31
2024/01/31 14:23:19;;;;;;;;;;;6.90;99.90;;;;;;5089602;28;19972;-31
2024/01/31 14:25:45;;;;;;;;;;;6.90;99.90;;;;;;5088527;28;19920;-30
2024/01/31 14:28:12;;;;;;;;;;;6.90;99.90;;;;;;5096386;28;20260;-32